Wetterdaten: Dienstag, 26.06.2012
Datum Zeit Temperatur Luftfeuchte Regen Wind Richtung Richtung Taupunkt Windchill Windben
26.06.2012 00:00 11,0 C 93 % 0,0 l/m 1,4 km/h (1 Bft) N-NW 337 9,9 C 10,8 C 3,4 km/h (1 Bft)
26.06.2012 00:05 11,0 C 93 % 0,0 l/m 1,1 km/h (1 Bft) N-NO 22 9,9 C 10,8 C 0,0 km/h (0 Bft)
26.06.2012 00:10 10,8 C 94 % 0,0 l/m 0,6 km/h (0 Bft) S-SW 202 9,9 C 10,7 C 0,0 km/h (0 Bft)
26.06.2012 00:15 10,8 C 94 % 0,0 l/m 0,2 km/h (0 Bft) N-NO 22 9,9 C 10,7 C 0,0 km/h (0 Bft)
26.06.2012 00:20 10,9 C 94 % 0,0 l/m 0,2 km/h (0 Bft) NO 45 10,0 C 10,7 C 1,9 km/h (1 Bft)
26.06.2012 00:25 10,9 C 94 % 0,0 l/m 0,5 km/h (0 Bft) N 360 10,0 C 10,7 C 2,9 km/h (1 Bft)
26.06.2012 00:30 10,9 C 94 % 0,0 l/m 1,3 km/h (1 Bft) NO 45 10,0 C 10,8 C 5,8 km/h (2 Bft)
26.06.2012 00:35 10,9 C 94 % 0,0 l/m 1,3 km/h (1 Bft) O 90 10,0 C 10,8 C 0,0 km/h (0 Bft)
26.06.2012 00:40 10,9 C 94 % 0,0 l/m 0,6 km/h (0 Bft) N-NO 22 10,0 C 10,8 C 0,0 km/h (0 Bft)
26.06.2012 00:45 10,9 C 94 % 0,0 l/m 0,3 km/h (0 Bft) N 360 10,0 C 10,8 C 0,0 km/h (0 Bft)
26.06.2012 00:50 10,8 C 94 % 0,0 l/m 1,1 km/h (1 Bft) N 360 9,9 C 10,7 C 4,8 km/h (1 Bft)
26.06.2012 00:55 10,8 C 94 % 0,0 l/m 1,3 km/h (1 Bft) W 270 9,9 C 10,7 C 0,0 km/h (0 Bft)
26.06.2012 01:00 10,7 C 94 % 0,0 l/m 1,3 km/h (1 Bft) O 90 9,8 C 10,6 C 0,0 km/h (0 Bft)
26.06.2012 01:05 10,7 C 94 % 0,0 l/m 1,1 km/h (1 Bft) NO 45 9,8 C 10,6 C 2,6 km/h (1 Bft)
26.06.2012 01:10 10,7 C 94 % 0,0 l/m 0,6 km/h (0 Bft) N-NO 22 9,8 C 10,6 C 2,4 km/h (1 Bft)
26.06.2012 01:15 10,7 C 94 % 0,0 l/m 0,2 km/h (0 Bft) N 360 9,8 C 10,6 C 0,0 km/h (0 Bft)
26.06.2012 01:20 10,8 C 94 % 0,0 l/m 0,3 km/h (0 Bft) N-NW 337 9,9 C 10,6 C 0,0 km/h (0 Bft)
26.06.2012 01:25 10,8 C 94 % 0,0 l/m 0,3 km/h (0 Bft) N 360 9,9 C 10,6 C 2,6 km/h (1 Bft)
26.06.2012 01:30 10,7 C 94 % 0,0 l/m 0,5 km/h (0 Bft) N 360 9,8 C 10,6 C 2,4 km/h (1 Bft)
26.06.2012 01:35 10,7 C 94 % 0,0 l/m 0,8 km/h (0 Bft) N 360 9,8 C 10,6 C 4,2 km/h (1 Bft)
26.06.2012 01:40 10,5 C 94 % 0,0 l/m 1,8 km/h (1 Bft) N-NW 337 9,6 C 10,5 C 0,0 km/h (0 Bft)
26.06.2012 01:45 10,5 C 94 % 0,0 l/m 1,6 km/h (1 Bft) N-NO 22 9,6 C 10,4 C 0,0 km/h (0 Bft)
26.06.2012 01:50 10,5 C 94 % 0,0 l/m 1,0 km/h (0 Bft) N-NO 22 9,6 C 10,4 C 2,3 km/h (1 Bft)
26.06.2012 01:55 10,6 C 94 % 0,0 l/m 1,0 km/h (0 Bft) NO 45 9,7 C 10,4 C 0,0 km/h (0 Bft)
26.06.2012 02:00 10,5 C 94 % 0,0 l/m 0,6 km/h (0 Bft) SO 135 9,6 C 10,3 C 1,8 km/h (1 Bft)
26.06.2012 02:05 10,5 C 94 % 0,0 l/m 0,5 km/h (0 Bft) N 360 9,6 C 10,3 C 0,0 km/h (0 Bft)
26.06.2012 02:10 10,3 C 94 % 0,0 l/m 0,8 km/h (0 Bft) N-NO 22 9,4 C 10,2 C 1,6 km/h (1 Bft)
26.06.2012 02:15 10,3 C 94 % 0,0 l/m 1,1 km/h (1 Bft) N-NO 22 9,4 C 10,2 C 0,0 km/h (0 Bft)
26.06.2012 02:20 10,5 C 94 % 0,0 l/m 0,5 km/h (0 Bft) N 360 9,6 C 10,2 C 0,0 km/h (0 Bft)
26.06.2012 02:25 10,4 C 94 % 0,0 l/m 0,6 km/h (0 Bft) N-NO 22 9,5 C 10,2 C 3,1 km/h (1 Bft)
26.06.2012 02:30 10,4 C 94 % 0,0 l/m 0,5 km/h (0 Bft) S-SO 157 9,5 C 10,2 C 0,0 km/h (0 Bft)
26.06.2012 02:35 10,2 C 94 % 0,0 l/m 0,2 km/h (0 Bft) SO 135 9,3 C 10,0 C 0,0 km/h (0 Bft)
26.06.2012 02:40 10,0 C 94 % 0,0 l/m 0,0 km/h (0 Bft) NO 45 9,1 C 9,8 C 0,0 km/h (0 Bft)
26.06.2012 02:45 10,0 C 94 % 0,0 l/m 0,0 km/h (0 Bft) NO 45 9,1 C 9,8 C 0,0 km/h (0 Bft)
26.06.2012 02:50 9,7 C 94 % 0,0 l/m 0,0 km/h (0 Bft) S-SO 157 8,8 C 9,5 C 0,0 km/h (0 Bft)
26.06.2012 02:55 9,8 C 94 % 0,0 l/m 0,3 km/h (0 Bft) N-NO 22 8,9 C 9,4 C 1,6 km/h (1 Bft)
26.06.2012 03:00 9,9 C 94 % 0,0 l/m 0,3 km/h (0 Bft) N-NW 337 9,0 C 9,6 C 0,0 km/h (0 Bft)
26.06.2012 03:05 10,0 C 94 % 0,0 l/m 0,3 km/h (0 Bft) N 360 9,1 C 9,7 C 0,0 km/h (0 Bft)
26.06.2012 03:10 10,0 C 94 % 0,0 l/m 0,0 km/h (0 Bft) N 360 9,1 C 9,7 C 0,0 km/h (0 Bft)
26.06.2012 03:15 10,0 C 94 % 0,0 l/m 0,0 km/h (0 Bft) N-NO 22 9,1 C 9,7 C 0,0 km/h (0 Bft)
26.06.2012 03:20 9,9 C 95 % 0,0 l/m 0,5 km/h (0 Bft) N-NW 337 9,1 C 9,6 C 2,6 km/h (1 Bft)
26.06.2012 03:25 9,6 C 94 % 0,0 l/m 0,5 km/h (0 Bft) N 360 8,7 C 9,5 C 0,0 km/h (0 Bft)
26.06.2012 03:30 9,3 C 94 % 0,0 l/m 0,5 km/h (0 Bft) S 180 8,4 C 9,1 C 2,3 km/h (1 Bft)
26.06.2012 03:35 9,3 C 94 % 0,0 l/m 1,3 km/h (1 Bft) N 360 8,4 C 9,0 C 7,6 km/h (2 Bft)
26.06.2012 03:40 9,5 C 95 % 0,0 l/m 3,2 km/h (1 Bft) S 180 8,7 C 9,2 C 11,4 km/h (2 Bft)
26.06.2012 03:45 9,2 C 94 % 0,0 l/m 3,2 km/h (1 Bft) N-NO 22 8,3 C 9,1 C 0,0 km/h (0 Bft)
26.06.2012 03:50 9,1 C 95 % 0,0 l/m 0,3 km/h (0 Bft) NO 45 8,3 C 8,9 C 0,0 km/h (0 Bft)
26.06.2012 03:55 8,9 C 95 % 0,0 l/m 0,2 km/h (0 Bft) N 360 8,1 C 8,8 C 0,0 km/h (0 Bft)
26.06.2012 04:00 8,8 C 95 % 0,0 l/m 0,2 km/h (0 Bft) N-NO 22 8,0 C 8,4 C 0,0 km/h (0 Bft)
26.06.2012 04:05 8,6 C 95 % 0,0 l/m 0,0 km/h (0 Bft) S 180 7,8 C 8,4 C 0,0 km/h (0 Bft)
26.06.2012 04:10 8,6 C 95 % 0,0 l/m 0,3 km/h (0 Bft) NO 45 7,8 C 8,4 C 0,0 km/h (0 Bft)
26.06.2012 04:15 8,7 C 95 % 0,0 l/m 0,3 km/h (0 Bft) NO 45 7,9 C 8,3 C 0,0 km/h (0 Bft)
26.06.2012 04:20 8,9 C 95 % 0,0 l/m 0,2 km/h (0 Bft) N 360 8,1 C 8,4 C 2,3 km/h (1 Bft)
26.06.2012 04:25 8,8 C 95 % 0,0 l/m 0,3 km/h (0 Bft) O 90 8,0 C 8,4 C 0,0 km/h (0 Bft)
26.06.2012 04:30 8,5 C 95 % 0,0 l/m 0,3 km/h (0 Bft) O-SO 112 7,7 C 8,2 C 0,0 km/h (0 Bft)
26.06.2012 04:35 8,5 C 95 % 0,0 l/m 0,3 km/h (0 Bft) NO 45 7,7 C 8,2 C 2,3 km/h (1 Bft)
26.06.2012 04:40 8,6 C 95 % 0,0 l/m 0,3 km/h (0 Bft) N-NO 22 7,8 C 8,1 C 0,0 km/h (0 Bft)
26.06.2012 04:45 8,4 C 95 % 0,0 l/m 0,2 km/h (0 Bft) SW 225 7,6 C 8,1 C 0,0 km/h (0 Bft)
26.06.2012 04:50 8,3 C 95 % 0,0 l/m 0,2 km/h (0 Bft) S-SO 157 7,5 C 8,1 C 0,0 km/h (0 Bft)
26.06.2012 04:55 8,3 C 95 % 0,0 l/m 0,2 km/h (0 Bft) N-NO 22 7,5 C 8,0 C 0,0 km/h (0 Bft)
26.06.2012 05:00 8,2 C 95 % 0,0 l/m 0,0 km/h (0 Bft) N-NW 337 7,4 C 7,8 C 0,0 km/h (0 Bft)
26.06.2012 05:05 8,2 C 95 % 0,7 l/m 0,0 km/h (0 Bft) O-SO 112 7,4 C 7,7 C 0,0 km/h (0 Bft)
26.06.2012 05:10 8,1 C 94 % 0,0 l/m 0,0 km/h (0 Bft) S 180 7,2 C 7,6 C 0,0 km/h (0 Bft)
26.06.2012 05:15 8,1 C 94 % 0,0 l/m 0,0 km/h (0 Bft) S 180 7,2 C 7,5 C 0,0 km/h (0 Bft)
26.06.2012 05:20 8,1 C 94 % 0,0 l/m 0,0 km/h (0 Bft) S-SW 202 7,2 C 7,5 C 1,6 km/h (1 Bft)
26.06.2012 05:25 8,4 C 95 % 0,0 l/m 0,0 km/h (0 Bft) N-NO 22 7,6 C 7,6 C 0,0 km/h (0 Bft)
26.06.2012 05:30 8,3 C 95 % 0,0 l/m 0,0 km/h (0 Bft) O-SO 112 7,5 C 7,9 C 0,0 km/h (0 Bft)
26.06.2012 05:35 8,2 C 95 % 0,0 l/m 0,0 km/h (0 Bft) O-SO 112 7,4 C 7,9 C 0,0 km/h (0 Bft)
26.06.2012 05:40 8,4 C 95 % 0,0 l/m 0,0 km/h (0 Bft) N 360 7,6 C 7,9 C 0,0 km/h (0 Bft)
26.06.2012 05:45 8,6 C 95 % 0,0 l/m 0,0 km/h (0 Bft) N-NO 22 7,8 C 8,0 C 0,0 km/h (0 Bft)
26.06.2012 05:50 8,7 C 95 % 0,0 l/m 0,0 km/h (0 Bft) NO 45 7,9 C 8,3 C 0,0 km/h (0 Bft)
26.06.2012 05:55 8,8 C 95 % 0,0 l/m 0,0 km/h (0 Bft) S 180 8,0 C 8,4 C 0,0 km/h (0 Bft)
26.06.2012 06:00 8,9 C 95 % 0,0 l/m 0,0 km/h (0 Bft) S 180 8,1 C 8,6 C 0,0 km/h (0 Bft)
26.06.2012 06:05 9,0 C 95 % 0,0 l/m 0,0 km/h (0 Bft) S 180 8,2 C 8,6 C 1,8 km/h (1 Bft)
26.06.2012 06:10 9,3 C 95 % 0,0 l/m 0,0 km/h (0 Bft) N-NW 337 8,5 C 8,9 C 0,0 km/h (0 Bft)
26.06.2012 06:15 9,3 C 95 % 0,0 l/m 0,0 km/h (0 Bft) W-SW 247 8,5 C 9,1 C 0,0 km/h (0 Bft)
26.06.2012 06:20 9,3 C 95 % 0,0 l/m 0,2 km/h (0 Bft) W-NW 292 8,5 C 9,2 C 0,0 km/h (0 Bft)
26.06.2012 06:25 9,4 C 95 % 0,0 l/m 0,2 km/h (0 Bft) N-NW 337 8,6 C 9,1 C 0,0 km/h (0 Bft)
26.06.2012 06:30 9,6 C 95 % 0,0 l/m 0,0 km/h (0 Bft) W 270 8,8 C 9,3 C 0,0 km/h (0 Bft)
26.06.2012 06:35 10,0 C 95 % 0,0 l/m 0,3 km/h (0 Bft) N 360 9,2 C 9,5 C 0,0 km/h (0 Bft)
26.06.2012 06:40 10,1 C 95 % 0,0 l/m 0,3 km/h (0 Bft) N-NW 337 9,3 C 9,9 C 1,6 km/h (1 Bft)
26.06.2012 06:45 10,3 C 95 % 0,0 l/m 0,3 km/h (0 Bft) S 180 9,5 C 10,0 C 1,8 km/h (1 Bft)
26.06.2012 06:50 10,8 C 95 % 0,0 l/m 0,3 km/h (0 Bft) N-NO 22 10,0 C 10,4 C 0,0 km/h (0 Bft)
26.06.2012 06:55 10,8 C 95 % 0,0 l/m 0,2 km/h (0 Bft) SO 135 10,0 C 10,7 C 0,0 km/h (0 Bft)
26.06.2012 07:00 11,2 C 95 % 0,0 l/m 0,5 km/h (0 Bft) SO 135 10,4 C 11,1 C 3,5 km/h (1 Bft)
26.06.2012 07:05 11,1 C 94 % 0,0 l/m 0,5 km/h (0 Bft) N 360 10,2 C 11,1 C 0,0 km/h (0 Bft)
26.06.2012 07:10 11,1 C 94 % 0,0 l/m 0,2 km/h (0 Bft) N 360 10,2 C 11,3 C 0,0 km/h (0 Bft)
26.06.2012 07:15 11,1 C 94 % 0,0 l/m 0,0 km/h (0 Bft) NO 45 10,2 C 11,4 C 0,0 km/h (0 Bft)
26.06.2012 07:20 11,1 C 94 % 0,0 l/m 0,0 km/h (0 Bft) N-NW 337 10,2 C 11,5 C 0,0 km/h (0 Bft)
26.06.2012 07:25 11,4 C 94 % 0,0 l/m 0,0 km/h (0 Bft) NO 45 10,5 C 11,5 C 0,0 km/h (0 Bft)
26.06.2012 07:30 11,4 C 94 % 0,0 l/m 0,2 km/h (0 Bft) N 360 10,5 C 11,6 C 1,6 km/h (1 Bft)
26.06.2012 07:35 11,4 C 94 % 0,0 l/m 0,2 km/h (0 Bft) N-NO 22 10,5 C 11,7 C 0,0 km/h (0 Bft)
26.06.2012 07:40 12,1 C 94 % 0,0 l/m 0,2 km/h (0 Bft) N-NO 22 11,2 C 12,1 C 0,0 km/h (0 Bft)
26.06.2012 07:45 13,9 C 93 % 0,0 l/m 0,0 km/h (0 Bft) NO 45 12,8 C 12,5 C 0,0 km/h (0 Bft)
26.06.2012 07:50 13,9 C 93 % 0,0 l/m 0,3 km/h (0 Bft) S-SO 157 12,8 C 14,5 C 0,0 km/h (0 Bft)
26.06.2012 07:55 13,7 C 92 % 0,0 l/m 0,5 km/h (0 Bft) N-NO 22 12,4 C 14,8 C 1,6 km/h (1 Bft)
26.06.2012 08:00 14,0 C 91 % 0,0 l/m 0,3 km/h (0 Bft) N 360 12,6 C 15,9 C 2,6 km/h (1 Bft)
26.06.2012 08:05 14,0 C 90 % 0,0 l/m 0,2 km/h (0 Bft) N-NW 337 12,4 C 16,1 C 0,0 km/h (0 Bft)
26.06.2012 08:10 13,7 C 89 % 0,0 l/m 0,3 km/h (0 Bft) S-SO 157 11,9 C 16,7 C 0,0 km/h (0 Bft)
26.06.2012 08:15 13,8 C 89 % 0,0 l/m 0,5 km/h (0 Bft) O 90 12,0 C 16,7 C 2,6 km/h (1 Bft)
26.06.2012 08:20 13,1 C 88 % 0,0 l/m 0,8 km/h (0 Bft) NO 45 11,2 C 16,1 C 0,0 km/h (0 Bft)
26.06.2012 08:25 13,3 C 88 % 0,0 l/m 0,8 km/h (0 Bft) O-SO 112 11,4 C 16,1 C 0,0 km/h (0 Bft)
26.06.2012 08:30 14,7 C 87 % 0,0 l/m 0,2 km/h (0 Bft) O 90 12,6 C 17,0 C 2,3 km/h (1 Bft)
26.06.2012 08:35 15,6 C 80 % 0,0 l/m 1,6 km/h (1 Bft) O 90 12,2 C 17,7 C 3,2 km/h (1 Bft)
26.06.2012 08:40 15,1 C 81 % 0,0 l/m 2,9 km/h (1 Bft) O-SO 112 11,9 C 17,5 C 3,7 km/h (1 Bft)
26.06.2012 08:45 16,4 C 79 % 0,0 l/m 2,9 km/h (1 Bft) S 180 12,7 C 17,7 C 5,3 km/h (1 Bft)
26.06.2012 08:50 17,4 C 68 % 0,0 l/m 3,5 km/h (1 Bft) O-SO 112 11,5 C 19,6 C 6,3 km/h (2 Bft)
26.06.2012 08:55 16,5 C 70 % 0,0 l/m 4,2 km/h (1 Bft) SO 135 11,0 C 19,9 C 5,8 km/h (2 Bft)
26.06.2012 09:00 15,4 C 76 % 0,0 l/m 4,5 km/h (1 Bft) SO 135 11,2 C 18,5 C 5,3 km/h (1 Bft)
26.06.2012 09:05 15,9 C 74 % 0,0 l/m 4,7 km/h (1 Bft) O-SO 112 11,3 C 18,3 C 4,3 km/h (1 Bft)
26.06.2012 09:10 16,1 C 70 % 0,0 l/m 3,2 km/h (1 Bft) SO 135 10,6 C 18,4 C 3,2 km/h (1 Bft)
26.06.2012 09:15 18,0 C 71 % 0,0 l/m 3,1 km/h (1 Bft) S 180 13,0 C 19,4 C 5,5 km/h (1 Bft)
26.06.2012 09:20 17,7 C 68 % 0,0 l/m 3,1 km/h (1 Bft) SO 135 11,7 C 20,1 C 3,4 km/h (1 Bft)
26.06.2012 09:25 17,2 C 70 % 0,0 l/m 2,9 km/h (1 Bft) S-SO 157 11,7 C 20,2 C 2,3 km/h (1 Bft)
26.06.2012 09:30 16,5 C 72 % 0,0 l/m 2,9 km/h (1 Bft) SO 135 11,4 C 19,5 C 3,9 km/h (1 Bft)
26.06.2012 09:35 16,1 C 71 % 0,0 l/m 3,2 km/h (1 Bft) O-SO 112 10,8 C 18,8 C 3,5 km/h (1 Bft)
26.06.2012 09:40 17,2 C 70 % 0,0 l/m 3,5 km/h (1 Bft) SO 135 11,7 C 18,6 C 5,8 km/h (2 Bft)
26.06.2012 09:45 17,7 C 64 % 0,0 l/m 3,7 km/h (1 Bft) S 180 10,8 C 18,8 C 3,9 km/h (1 Bft)
26.06.2012 09:50 18,6 C 64 % 0,0 l/m 3,9 km/h (1 Bft) O 90 11,7 C 19,7 C 6,3 km/h (2 Bft)
26.06.2012 09:55 19,0 C 66 % 0,0 l/m 4,3 km/h (1 Bft) O 90 12,5 C 20,3 C 5,8 km/h (2 Bft)
26.06.2012 10:00 19,1 C 58 % 0,0 l/m 3,2 km/h (1 Bft) S-SW 202 10,6 C 21,7 C 3,2 km/h (1 Bft)
26.06.2012 10:05 19,7 C 61 % 0,0 l/m 3,1 km/h (1 Bft) O-SO 112 12,0 C 22,1 C 4,2 km/h (1 Bft)
26.06.2012 10:10 19,0 C 61 % 0,0 l/m 4,3 km/h (1 Bft) SO 135 11,3 C 21,9 C 3,2 km/h (1 Bft)
26.06.2012 10:15 19,8 C 58 % 0,0 l/m 5,0 km/h (1 Bft) S 180 11,3 C 21,7 C 2,1 km/h (1 Bft)
26.06.2012 10:20 19,7 C 57 % 0,0 l/m 5,1 km/h (1 Bft) S 180 10,9 C 21,7 C 6,4 km/h (2 Bft)
26.06.2012 10:25 20,3 C 58 % 0,0 l/m 5,0 km/h (1 Bft) O-SO 112 11,8 C 21,7 C 8,7 km/h (2 Bft)
26.06.2012 10:30 20,4 C 59 % 0,0 l/m 4,2 km/h (1 Bft) S-SO 157 12,1 C 22,5 C 5,8 km/h (2 Bft)
26.06.2012 10:35 19,9 C 56 % 0,0 l/m 4,5 km/h (1 Bft) N-NO 22 10,9 C 22,3 C 4,5 km/h (1 Bft)
26.06.2012 10:40 18,8 C 53 % 0,0 l/m 6,3 km/h (2 Bft) S-SO 157 9,0 C 21,3 C 12,9 km/h (3 Bft)
26.06.2012 10:45 18,9 C 56 % 0,0 l/m 6,6 km/h (2 Bft) O-SO 112 9,9 C 20,6 C 6,0 km/h (2 Bft)
26.06.2012 10:50 20,5 C 52 % 0,0 l/m 5,3 km/h (1 Bft) SO 135 10,3 C 21,3 C 8,5 km/h (2 Bft)
26.06.2012 10:55 20,2 C 55 % 0,0 l/m 4,8 km/h (1 Bft) O-SO 112 10,9 C 21,8 C 8,4 km/h (2 Bft)
26.06.2012 11:00 20,7 C 54 % 0,0 l/m 5,6 km/h (1 Bft) S-SO 157 11,1 C 21,7 C 10,0 km/h (2 Bft)
26.06.2012 11:05 20,8 C 53 % 0,0 l/m 5,5 km/h (1 Bft) SO 135 10,9 C 21,9 C 6,9 km/h (2 Bft)
26.06.2012 11:10 20,8 C 53 % 0,0 l/m 7,4 km/h (2 Bft) O-SO 112 10,9 C 21,4 C 17,5 km/h (3 Bft)
26.06.2012 11:15 20,2 C 50 % 0,0 l/m 7,9 km/h (2 Bft) S-SO 157 9,4 C 20,8 C 12,1 km/h (2 Bft)
26.06.2012 11:20 20,1 C 53 % 0,0 l/m 7,7 km/h (2 Bft) S 180 10,2 C 20,1 C 3,5 km/h (1 Bft)
26.06.2012 11:25 20,2 C 54 % 0,0 l/m 7,2 km/h (2 Bft) SO 135 10,6 C 20,5 C 7,7 km/h (2 Bft)
26.06.2012 11:30 19,9 C 52 % 0,0 l/m 6,0 km/h (2 Bft) SO 135 9,7 C 20,8 C 9,5 km/h (2 Bft)
26.06.2012 11:35 19,6 C 53 % 0,0 l/m 7,7 km/h (2 Bft) O-SO 112 9,8 C 20,0 C 10,1 km/h (2 Bft)
26.06.2012 11:40 20,7 C 51 % 0,0 l/m 7,9 km/h (2 Bft) S-SO 157 10,2 C 20,3 C 11,6 km/h (2 Bft)
26.06.2012 11:45 21,1 C 49 % 0,0 l/m 8,0 km/h (2 Bft) SO 135 10,0 C 20,5 C 11,1 km/h (2 Bft)
26.06.2012 11:50 21,9 C 51 % 0,0 l/m 7,4 km/h (2 Bft) S-SO 157 11,3 C 21,5 C 6,3 km/h (2 Bft)
26.06.2012 11:55 21,6 C 49 % 0,0 l/m 6,8 km/h (2 Bft) SO 135 10,4 C 22,1 C 14,3 km/h (3 Bft)
26.06.2012 12:00 21,7 C 49 % 0,0 l/m 6,9 km/h (2 Bft) SO 135 10,5 C 21,5 C 2,9 km/h (1 Bft)
26.06.2012 12:05 22,3 C 49 % 0,0 l/m 7,1 km/h (2 Bft) S 180 11,1 C 21,8 C 8,9 km/h (2 Bft)
26.06.2012 12:10 21,3 C 48 % 0,0 l/m 5,8 km/h (2 Bft) SO 135 9,8 C 22,4 C 5,1 km/h (1 Bft)
26.06.2012 12:15 21,5 C 50 % 0,0 l/m 6,3 km/h (2 Bft) O-SO 112 10,6 C 22,3 C 7,9 km/h (2 Bft)
26.06.2012 12:20 20,8 C 54 % 0,0 l/m 6,0 km/h (2 Bft) SO 135 11,1 C 21,8 C 7,6 km/h (2 Bft)
26.06.2012 12:25 20,2 C 54 % 0,0 l/m 5,8 km/h (2 Bft) S-SO 157 10,6 C 21,5 C 8,2 km/h (2 Bft)
26.06.2012 12:30 21,2 C 52 % 0,0 l/m 4,8 km/h (1 Bft) SO 135 10,9 C 21,2 C 7,2 km/h (2 Bft)
26.06.2012 12:35 21,1 C 49 % 0,0 l/m 4,8 km/h (1 Bft) S 180 10,0 C 21,7 C 6,4 km/h (2 Bft)
26.06.2012 12:40 20,3 C 55 % 0,0 l/m 5,8 km/h (2 Bft) S-SO 157 11,0 C 21,2 C 7,4 km/h (2 Bft)
26.06.2012 12:45 20,2 C 51 % 0,0 l/m 5,6 km/h (1 Bft) SO 135 9,7 C 20,8 C 3,1 km/h (1 Bft)
26.06.2012 12:50 21,8 C 49 % 0,0 l/m 5,6 km/h (1 Bft) O-SO 112 10,6 C 21,5 C 6,8 km/h (2 Bft)
26.06.2012 12:55 22,1 C 49 % 0,0 l/m 5,5 km/h (1 Bft) SO 135 10,9 C 22,4 C 6,9 km/h (2 Bft)
26.06.2012 13:00 22,1 C 49 % 0,0 l/m 6,6 km/h (2 Bft) S 180 10,9 C 22,5 C 8,9 km/h (2 Bft)
26.06.2012 13:05 21,4 C 50 % 0,0 l/m 6,8 km/h (2 Bft) S 180 10,5 C 22,4 C 7,6 km/h (2 Bft)
26.06.2012 13:10 21,3 C 47 % 0,0 l/m 6,6 km/h (2 Bft) S 180 9,5 C 22,0 C 7,1 km/h (2 Bft)
26.06.2012 13:15 22,0 C 49 % 0,0 l/m 5,6 km/h (1 Bft) S 180 10,8 C 22,7 C 5,8 km/h (2 Bft)
26.06.2012 13:20 21,9 C 47 % 0,0 l/m 6,3 km/h (2 Bft) S 180 10,1 C 23,0 C 9,0 km/h (2 Bft)
26.06.2012 13:25 20,0 C 49 % 0,0 l/m 6,6 km/h (2 Bft) SO 135 9,0 C 22,6 C 10,9 km/h (2 Bft)
26.06.2012 13:30 21,7 C 47 % 0,0 l/m 7,1 km/h (2 Bft) S-SW 202 9,9 C 21,0 C 12,1 km/h (2 Bft)
26.06.2012 13:35 21,4 C 45 % 0,0 l/m 7,6 km/h (2 Bft) SO 135 9,0 C 21,0 C 12,4 km/h (3 Bft)
26.06.2012 13:40 21,7 C 43 % 0,0 l/m 8,2 km/h (2 Bft) O-SO 112 8,6 C 20,6 C 20,8 km/h (4 Bft)
26.06.2012 13:45 21,6 C 44 % 0,0 l/m 8,0 km/h (2 Bft) SO 135 8,8 C 20,8 C 7,4 km/h (2 Bft)
26.06.2012 13:50 21,9 C 43 % 0,0 l/m 8,9 km/h (2 Bft) O 90 8,7 C 21,0 C 10,0 km/h (2 Bft)
26.06.2012 13:55 21,7 C 44 % 0,0 l/m 8,9 km/h (2 Bft) O-SO 112 8,9 C 21,1 C 15,3 km/h (3 Bft)
26.06.2012 14:00 22,0 C 43 % 0,0 l/m 8,4 km/h (2 Bft) SO 135 8,8 C 21,3 C 13,8 km/h (3 Bft)
26.06.2012 14:05 21,5 C 44 % 0,0 l/m 9,5 km/h (2 Bft) S 180 8,7 C 21,0 C 12,1 km/h (2 Bft)
26.06.2012 14:10 21,4 C 43 % 0,0 l/m 10,5 km/h (2 Bft) SO 135 8,3 C 20,5 C 15,8 km/h (3 Bft)
26.06.2012 14:15 21,9 C 44 % 0,0 l/m 10,1 km/h (2 Bft) S-SO 157 9,1 C 20,6 C 10,1 km/h (2 Bft)
26.06.2012 14:20 22,3 C 45 % 0,0 l/m 9,0 km/h (2 Bft) S-SO 157 9,8 C 21,4 C 7,6 km/h (2 Bft)
26.06.2012 14:25 22,4 C 45 % 0,0 l/m 8,7 km/h (2 Bft) S 180 9,9 C 21,6 C 7,9 km/h (2 Bft)
26.06.2012 14:30 22,1 C 42 % 0,0 l/m 7,9 km/h (2 Bft) S-SO 157 8,6 C 22,0 C 5,3 km/h (1 Bft)
26.06.2012 14:35 22,4 C 42 % 0,0 l/m 8,0 km/h (2 Bft) SO 135 8,9 C 22,4 C 15,8 km/h (3 Bft)
26.06.2012 14:40 21,2 C 45 % 0,0 l/m 9,2 km/h (2 Bft) S-SO 157 8,8 C 21,1 C 12,1 km/h (2 Bft)
26.06.2012 14:45 21,1 C 43 % 0,0 l/m 10,1 km/h (2 Bft) S 180 8,0 C 20,7 C 19,8 km/h (3 Bft)
26.06.2012 14:50 22,0 C 45 % 0,0 l/m 9,3 km/h (2 Bft) O 90 9,5 C 20,9 C 5,6 km/h (1 Bft)
26.06.2012 14:55 22,1 C 42 % 0,0 l/m 9,5 km/h (2 Bft) S-SO 157 8,6 C 21,2 C 12,4 km/h (3 Bft)
26.06.2012 15:00 21,9 C 42 % 0,0 l/m 10,5 km/h (2 Bft) S 180 8,4 C 20,9 C 15,1 km/h (3 Bft)
26.06.2012 15:05 21,8 C 42 % 0,0 l/m 11,3 km/h (2 Bft) S-SO 157 8,3 C 20,6 C 10,1 km/h (2 Bft)
26.06.2012 15:10 21,9 C 44 % 0,0 l/m 9,2 km/h (2 Bft) O-SO 112 9,1 C 21,4 C 24,1 km/h (4 Bft)
26.06.2012 15:15 22,1 C 43 % 0,0 l/m 8,5 km/h (2 Bft) O-SO 112 8,9 C 21,7 C 19,0 km/h (3 Bft)
26.06.2012 15:20 22,0 C 42 % 0,0 l/m 10,1 km/h (2 Bft) S-SO 157 8,5 C 21,4 C 11,4 km/h (2 Bft)
26.06.2012 15:25 22,3 C 43 % 0,0 l/m 9,8 km/h (2 Bft) SO 135 9,1 C 21,6 C 10,0 km/h (2 Bft)
26.06.2012 15:30 22,8 C 43 % 0,0 l/m 8,7 km/h (2 Bft) W-NW 292 9,6 C 22,3 C 15,4 km/h (3 Bft)
26.06.2012 15:35 22,4 C 39 % 0,0 l/m 9,5 km/h (2 Bft) SO 135 7,8 C 22,1 C 13,5 km/h (3 Bft)
26.06.2012 15:40 22,3 C 42 % 0,0 l/m 9,7 km/h (2 Bft) SO 135 8,8 C 22,1 C 13,5 km/h (3 Bft)
26.06.2012 15:45 22,4 C 44 % 0,0 l/m 9,3 km/h (2 Bft) S 180 9,5 C 22,2 C 9,0 km/h (2 Bft)
26.06.2012 15:50 22,7 C 44 % 0,0 l/m 8,4 km/h (2 Bft) O-SO 112 9,8 C 22,5 C 9,2 km/h (2 Bft)
26.06.2012 15:55 22,4 C 43 % 0,0 l/m 8,5 km/h (2 Bft) O 90 9,2 C 22,6 C 13,5 km/h (3 Bft)
26.06.2012 16:00 22,4 C 44 % 0,0 l/m 7,9 km/h (2 Bft) SO 135 9,5 C 22,9 C 6,8 km/h (2 Bft)
26.06.2012 16:05 22,5 C 44 % 0,0 l/m 7,7 km/h (2 Bft) S 180 9,6 C 23,1 C 10,3 km/h (2 Bft)
26.06.2012 16:10 22,2 C 44 % 0,0 l/m 11,4 km/h (2 Bft) O-SO 112 9,4 C 21,6 C 14,2 km/h (3 Bft)
26.06.2012 16:15 22,0 C 45 % 0,0 l/m 12,7 km/h (3 Bft) O-SO 112 9,5 C 21,1 C 11,6 km/h (2 Bft)
26.06.2012 16:20 21,9 C 45 % 0,0 l/m 8,7 km/h (2 Bft) S-SW 202 9,4 C 22,4 C 7,4 km/h (2 Bft)
26.06.2012 16:25 22,2 C 45 % 0,0 l/m 8,0 km/h (2 Bft) S-SO 157 9,7 C 22,5 C 8,5 km/h (2 Bft)
26.06.2012 16:30 21,9 C 45 % 0,0 l/m 9,0 km/h (2 Bft) S 180 9,4 C 22,5 C 5,6 km/h (1 Bft)
26.06.2012 16:35 21,9 C 46 % 0,0 l/m 9,8 km/h (2 Bft) S-SW 202 9,7 C 22,3 C 9,3 km/h (2 Bft)
26.06.2012 16:40 21,6 C 46 % 0,0 l/m 10,1 km/h (2 Bft) S 180 9,5 C 22,5 C 14,8 km/h (3 Bft)
26.06.2012 16:45 21,1 C 48 % 0,0 l/m 10,1 km/h (2 Bft) S 180 9,7 C 22,2 C 11,3 km/h (2 Bft)
26.06.2012 16:50 21,3 C 47 % 0,0 l/m 9,3 km/h (2 Bft) SO 135 9,5 C 22,1 C 15,1 km/h (3 Bft)
26.06.2012 16:55 20,8 C 48 % 0,0 l/m 9,8 km/h (2 Bft) S 180 9,4 C 21,8 C 14,2 km/h (3 Bft)
26.06.2012 17:00 20,5 C 49 % 0,0 l/m 9,2 km/h (2 Bft) SO 135 9,4 C 21,6 C 7,4 km/h (2 Bft)
26.06.2012 17:05 20,6 C 49 % 0,0 l/m 8,5 km/h (2 Bft) SO 135 9,5 C 21,7 C 13,0 km/h (3 Bft)
26.06.2012 17:10 20,6 C 49 % 0,0 l/m 8,9 km/h (2 Bft) S 180 9,5 C 21,7 C 12,1 km/h (2 Bft)
26.06.2012 17:15 20,2 C 49 % 0,0 l/m 10,3 km/h (2 Bft) S 180 9,1 C 21,4 C 26,2 km/h (4 Bft)
26.06.2012 17:20 20,3 C 49 % 0,0 l/m 9,8 km/h (2 Bft) SO 135 9,2 C 21,0 C 10,5 km/h (2 Bft)
26.06.2012 17:25 20,3 C 51 % 0,0 l/m 10,0 km/h (2 Bft) S-SO 157 9,8 C 21,0 C 8,9 km/h (2 Bft)
26.06.2012 17:30 20,0 C 51 % 0,0 l/m 6,8 km/h (2 Bft) S 180 9,6 C 21,9 C 9,2 km/h (2 Bft)
26.06.2012 17:35 20,2 C 52 % 0,0 l/m 6,0 km/h (2 Bft) SO 135 10,0 C 21,8 C 11,3 km/h (2 Bft)
26.06.2012 17:40 21,0 C 51 % 0,0 l/m 6,3 km/h (2 Bft) S 180 10,5 C 22,2 C 11,9 km/h (2 Bft)
26.06.2012 17:45 20,7 C 50 % 0,0 l/m 7,4 km/h (2 Bft) N-NW 337 9,9 C 22,5 C 11,7 km/h (2 Bft)
26.06.2012 17:50 20,1 C 51 % 0,0 l/m 9,3 km/h (2 Bft) SO 135 9,6 C 21,6 C 11,9 km/h (2 Bft)
26.06.2012 17:55 19,9 C 52 % 0,0 l/m 8,9 km/h (2 Bft) SO 135 9,7 C 21,2 C 9,8 km/h (2 Bft)
26.06.2012 18:00 20,5 C 51 % 0,0 l/m 8,4 km/h (2 Bft) S-SO 157 10,0 C 21,6 C 10,0 km/h (2 Bft)
26.06.2012 18:05 20,9 C 50 % 0,0 l/m 8,2 km/h (2 Bft) SO 135 10,1 C 22,2 C 10,1 km/h (2 Bft)
26.06.2012 18:10 20,0 C 51 % 0,0 l/m 9,0 km/h (2 Bft) SO 135 9,6 C 22,0 C 10,3 km/h (2 Bft)
26.06.2012 18:15 20,0 C 51 % 0,0 l/m 9,7 km/h (2 Bft) S-SO 157 9,6 C 21,0 C 14,3 km/h (3 Bft)
26.06.2012 18:20 20,6 C 49 % 0,0 l/m 9,0 km/h (2 Bft) S-SW 202 9,5 C 22,0 C 16,4 km/h (3 Bft)
26.06.2012 18:25 20,3 C 49 % 0,0 l/m 8,5 km/h (2 Bft) SO 135 9,2 C 22,2 C 8,9 km/h (2 Bft)
26.06.2012 18:30 20,2 C 50 % 0,0 l/m 9,0 km/h (2 Bft) S-SO 157 9,4 C 21,7 C 13,5 km/h (3 Bft)
26.06.2012 18:35 20,4 C 52 % 0,0 l/m 8,2 km/h (2 Bft) O-SO 112 10,2 C 21,8 C 10,5 km/h (2 Bft)
26.06.2012 18:40 19,6 C 50 % 0,0 l/m 9,3 km/h (2 Bft) SO 135 8,9 C 21,3 C 6,1 km/h (2 Bft)
26.06.2012 18:45 19,2 C 53 % 0,0 l/m 9,7 km/h (2 Bft) O-SO 112 9,4 C 20,6 C 10,5 km/h (2 Bft)
26.06.2012 18:50 19,2 C 53 % 0,0 l/m 7,6 km/h (2 Bft) SO 135 9,4 C 20,3 C 5,5 km/h (1 Bft)
26.06.2012 18:55 19,0 C 54 % 0,0 l/m 7,7 km/h (2 Bft) S-SO 157 9,5 C 19,9 C 8,4 km/h (2 Bft)
26.06.2012 19:00 19,2 C 55 % 0,0 l/m 7,1 km/h (2 Bft) S 180 9,9 C 20,1 C 7,6 km/h (2 Bft)
26.06.2012 19:05 19,1 C 54 % 0,0 l/m 6,9 km/h (2 Bft) O-SO 112 9,6 C 20,4 C 9,3 km/h (2 Bft)
26.06.2012 19:10 19,3 C 53 % 0,0 l/m 8,0 km/h (2 Bft) S-SO 157 9,5 C 20,4 C 12,4 km/h (3 Bft)
26.06.2012 19:15 19,3 C 54 % 0,0 l/m 8,2 km/h (2 Bft) S-SO 157 9,8 C 20,6 C 11,1 km/h (2 Bft)
26.06.2012 19:20 19,3 C 53 % 0,0 l/m 8,0 km/h (2 Bft) SO 135 9,5 C 21,0 C 14,0 km/h (3 Bft)
26.06.2012 19:25 18,9 C 55 % 0,0 l/m 7,9 km/h (2 Bft) SO 135 9,7 C 21,1 C 12,2 km/h (2 Bft)
26.06.2012 19:30 18,7 C 56 % 0,0 l/m 7,1 km/h (2 Bft) O-SO 112 9,7 C 20,3 C 6,0 km/h (2 Bft)
26.06.2012 19:35 18,3 C 56 % 0,0 l/m 6,3 km/h (2 Bft) SO 135 9,4 C 20,1 C 5,3 km/h (1 Bft)
26.06.2012 19:40 18,0 C 57 % 0,0 l/m 5,1 km/h (1 Bft) SO 135 9,4 C 19,2 C 5,0 km/h (1 Bft)
26.06.2012 19:45 18,0 C 58 % 0,0 l/m 4,7 km/h (1 Bft) O-SO 112 9,6 C 19,1 C 4,8 km/h (1 Bft)
26.06.2012 19:50 18,1 C 56 % 0,0 l/m 5,0 km/h (1 Bft) SO 135 9,2 C 18,8 C 14,0 km/h (3 Bft)
26.06.2012 19:55 18,1 C 57 % 0,0 l/m 5,8 km/h (2 Bft) SO 135 9,4 C 18,8 C 5,5 km/h (1 Bft)
26.06.2012 20:00 18,0 C 57 % 0,0 l/m 6,3 km/h (2 Bft) O-SO 112 9,4 C 18,6 C 3,9 km/h (1 Bft)
26.06.2012 20:05 17,9 C 58 % 0,0 l/m 5,6 km/h (1 Bft) O-SO 112 9,5 C 18,6 C 15,4 km/h (3 Bft)
26.06.2012 20:10 18,2 C 59 % 0,0 l/m 6,3 km/h (2 Bft) S-SO 157 10,1 C 18,6 C 8,5 km/h (2 Bft)
26.06.2012 20:15 18,4 C 58 % 0,0 l/m 6,3 km/h (2 Bft) O-SO 112 10,0 C 19,4 C 6,9 km/h (2 Bft)
26.06.2012 20:20 18,1 C 59 % 0,0 l/m 5,6 km/h (1 Bft) O-SO 112 10,0 C 19,4 C 7,7 km/h (2 Bft)
26.06.2012 20:25 18,3 C 58 % 0,0 l/m 5,5 km/h (1 Bft) SO 135 9,9 C 19,4 C 7,6 km/h (2 Bft)
26.06.2012 20:30 18,1 C 59 % 0,0 l/m 4,7 km/h (1 Bft) O-SO 112 10,0 C 20,0 C 4,8 km/h (1 Bft)
26.06.2012 20:35 17,8 C 60 % 0,0 l/m 4,0 km/h (1 Bft) S 180 9,9 C 19,5 C 4,8 km/h (1 Bft)
26.06.2012 20:40 17,3 C 60 % 0,0 l/m 3,5 km/h (1 Bft) SO 135 9,5 C 18,6 C 6,9 km/h (2 Bft)
26.06.2012 20:45 17,2 C 61 % 0,0 l/m 3,4 km/h (1 Bft) O-SO 112 9,6 C 18,3 C 4,0 km/h (1 Bft)
26.06.2012 20:50 17,1 C 62 % 0,0 l/m 4,2 km/h (1 Bft) O-SO 112 9,8 C 18,0 C 3,2 km/h (1 Bft)
26.06.2012 20:55 17,2 C 62 % 0,0 l/m 3,5 km/h (1 Bft) O-SO 112 9,9 C 18,4 C 5,8 km/h (2 Bft)
26.06.2012 21:00 17,0 C 63 % 0,0 l/m 2,3 km/h (1 Bft) O 90 9,9 C 18,1 C 2,1 km/h (1 Bft)
26.06.2012 21:05 16,8 C 63 % 0,0 l/m 2,1 km/h (1 Bft) N-NO 22 9,7 C 17,9 C 0,0 km/h (0 Bft)
26.06.2012 21:10 16,7 C 63 % 0,0 l/m 0,6 km/h (0 Bft) O 90 9,6 C 17,6 C 1,6 km/h (1 Bft)
26.06.2012 21:15 16,6 C 64 % 0,0 l/m 0,5 km/h (0 Bft) NO 45 9,8 C 17,3 C 2,6 km/h (1 Bft)
26.06.2012 21:20 16,4 C 65 % 0,0 l/m 0,5 km/h (0 Bft) O-SO 112 9,8 C 17,0 C 1,9 km/h (1 Bft)
26.06.2012 21:25 16,4 C 65 % 0,0 l/m 0,5 km/h (0 Bft) W 270 9,8 C 16,9 C 0,0 km/h (0 Bft)
26.06.2012 21:30 16,3 C 66 % 0,0 l/m 0,3 km/h (0 Bft) N-NO 22 9,9 C 16,5 C 0,0 km/h (0 Bft)
26.06.2012 21:35 16,2 C 66 % 0,0 l/m 0,2 km/h (0 Bft) N-NO 22 9,8 C 16,4 C 0,0 km/h (0 Bft)
26.06.2012 21:40 16,1 C 67 % 0,0 l/m 0,0 km/h (0 Bft) N 360 10,0 C 16,2 C 0,0 km/h (0 Bft)
26.06.2012 21:45 16,1 C 67 % 0,0 l/m 0,0 km/h (0 Bft) N 360 10,0 C 16,1 C 0,0 km/h (0 Bft)
26.06.2012 21:50 16,0 C 69 % 0,0 l/m 0,2 km/h (0 Bft) O-NO 67 10,3 C 15,9 C 0,0 km/h (0 Bft)
26.06.2012 21:55 16,0 C 69 % 0,0 l/m 0,2 km/h (0 Bft) O 90 10,3 C 15,9 C 0,0 km/h (0 Bft)
26.06.2012 22:00 15,9 C 71 % 0,0 l/m 0,2 km/h (0 Bft) NO 45 10,6 C 15,8 C 0,0 km/h (0 Bft)
26.06.2012 22:05 15,8 C 71 % 0,0 l/m 0,2 km/h (0 Bft) N-NO 22 10,6 C 15,8 C 0,0 km/h (0 Bft)
26.06.2012 22:10 15,7 C 72 % 0,0 l/m 0,0 km/h (0 Bft) O-SO 112 10,7 C 15,7 C 0,0 km/h (0 Bft)
26.06.2012 22:15 15,7 C 73 % 0,0 l/m 0,2 km/h (0 Bft) N 360 10,9 C 15,7 C 0,0 km/h (0 Bft)
26.06.2012 22:20 15,7 C 72 % 0,0 l/m 0,3 km/h (0 Bft) N 360 10,7 C 15,7 C 0,0 km/h (0 Bft)
26.06.2012 22:25 15,9 C 72 % 0,0 l/m 0,3 km/h (0 Bft) NO 45 10,9 C 15,7 C 1,6 km/h (1 Bft)
26.06.2012 22:30 15,8 C 72 % 0,0 l/m 0,0 km/h (0 Bft) SO 135 10,8 C 15,7 C 0,0 km/h (0 Bft)
26.06.2012 22:35 15,9 C 72 % 0,0 l/m 0,3 km/h (0 Bft) O-SO 112 10,9 C 15,8 C 0,0 km/h (0 Bft)
26.06.2012 22:40 15,9 C 72 % 0,0 l/m 0,6 km/h (0 Bft) O 90 10,9 C 15,9 C 2,1 km/h (1 Bft)
26.06.2012 22:45 15,9 C 72 % 0,0 l/m 0,6 km/h (0 Bft) S 180 10,9 C 15,9 C 1,6 km/h (1 Bft)
26.06.2012 22:50 15,8 C 73 % 0,0 l/m 0,8 km/h (0 Bft) W-SW 247 11,0 C 15,9 C 2,4 km/h (1 Bft)
26.06.2012 22:55 15,8 C 73 % 0,0 l/m 0,6 km/h (0 Bft) SO 135 11,0 C 15,9 C 1,9 km/h (1 Bft)
26.06.2012 23:00 15,8 C 73 % 0,0 l/m 0,8 km/h (0 Bft) N-NO 22 11,0 C 15,9 C 0,0 km/h (0 Bft)
26.06.2012 23:05 15,8 C 73 % 0,0 l/m 0,6 km/h (0 Bft) O 90 11,0 C 15,9 C 0,0 km/h (0 Bft)
26.06.2012 23:10 15,8 C 73 % 0,0 l/m 0,2 km/h (0 Bft) S 180 11,0 C 15,9 C 0,0 km/h (0 Bft)
26.06.2012 23:15 15,7 C 74 % 0,0 l/m 0,2 km/h (0 Bft) O-SO 112 11,1 C 15,8 C 2,1 km/h (1 Bft)
26.06.2012 23:20 15,8 C 74 % 0,0 l/m 1,1 km/h (1 Bft) SW 225 11,2 C 15,9 C 0,0 km/h (0 Bft)
26.06.2012 23:25 15,7 C 74 % 0,0 l/m 1,1 km/h (1 Bft) O-SO 112 11,1 C 15,9 C 0,0 km/h (0 Bft)
26.06.2012 23:30 15,8 C 74 % 0,0 l/m 1,1 km/h (1 Bft) O-SO 112 11,2 C 15,9 C 6,6 km/h (2 Bft)
26.06.2012 23:35 16,0 C 72 % 0,0 l/m 2,7 km/h (1 Bft) SO 135 11,0 C 16,1 C 2,4 km/h (1 Bft)
26.06.2012 23:40 15,9 C 73 % 0,0 l/m 2,7 km/h (1 Bft) O-SO 112 11,1 C 16,1 C 0,0 km/h (0 Bft)
26.06.2012 23:45 15,8 C 73 % 0,0 l/m 2,3 km/h (1 Bft) O-SO 112 11,0 C 16,1 C 0,0 km/h (0 Bft)
26.06.2012 23:50 15,9 C 74 % 0,0 l/m 1,0 km/h (0 Bft) SO 135 11,3 C 16,1 C 1,6 km/h (1 Bft)
26.06.2012 23:55 15,8 C 74 % 0,0 l/m 1,6 km/h (1 Bft) O 90 11,2 C 16,1 C 2,9 km/h (1 Bft)
_ Min-Zeit 05:20 15:35 - 22:30 - - 05:20 05:20 23:45
Minimum _ 8,1 C 39 % - 0,0 km/h (0 Bft) - - 7,2 C 7,5 C 0,0 km/h (0 Bft)
_ Max-Zeit 15:30 07:00 05:05 16:15 - - 09:15 16:05 17:15
Maximum _ 22,8 C 95 % 0,7 l/m 12,7 km/h
O-SO (3 Bft)
- - 13,0 C 23,1 C 26,2 km/h
S (4 Bft)
Durchschnitt _ 16,1 C 70 % #0,7 l/m 3,9 km/h (1 Bft) SO - 9,8 C 16,5 C 5,2 km/h (1 Bft)